Time;durP1;ratioP1;P1;durP2;ratioP2;P2;SDS_P1;SDS_P2;PMS_P1;PMS_P2;Temp;Humidity;BMP_temperature;BMP_pressure;BME280_temperature;BME280_humidity;BME280_pressure;Samples;Min_cycle;Max_cycle;Signal;HPM_P1;HPM_P2
2024/02/26 00:00:08;;;;;;;9.85;3.30;;;;;;;-146.27;84.84;44987.22;5069133;28;20032;-73
2024/02/26 00:02:41;;;;;;;5.25;3.38;;;;;;;-146.27;84.25;44975.28;5068223;28;20476;-74
2024/02/26 00:05:07;;;;;;;3.67;3.20;;;;;;;-146.27;84.01;44959.38;5068225;28;20044;-73
2024/02/26 00:07:33;;;;;;;5.20;2.95;;;;;;;-146.27;84.02;44967.31;5067504;28;20020;-73
2024/02/26 00:09:58;;;;;;;4.60;3.65;;;;;;;-146.27;83.71;44955.38;5067634;28;20033;-72
2024/02/26 00:12:23;;;;;;;6.68;3.33;;;;;;;-146.27;84.08;45011.09;5073090;28;20020;-74
2024/02/26 00:14:49;;;;;;;5.13;3.45;;;;;;;-146.27;83.99;44955.38;5068015;28;20116;-73
2024/02/26 00:17:15;;;;;;;4.47;3.40;;;;;;;-146.27;83.36;44937.47;5068286;28;20036;-74
2024/02/26 00:19:41;;;;;;;6.53;3.25;;;;;;;-146.27;83.92;45021.06;5061325;28;20025;-73
2024/02/26 00:22:07;;;;;;;4.68;3.70;;;;;;;-146.27;83.93;44995.19;5065713;28;20039;-73
2024/02/26 00:24:32;;;;;;;6.50;3.60;;;;;;;-146.27;83.81;44963.34;5068729;28;20473;-74
2024/02/26 00:26:59;;;;;;;5.00;3.53;;;;;;;-146.27;83.50;44955.38;5068423;28;20059;-73
2024/02/26 00:29:25;;;;;;;8.45;4.15;;;;;;;-146.27;83.90;44995.19;5066276;28;20547;-73
2024/02/26 00:31:51;;;;;;;7.10;3.88;;;;;;;-146.27;83.59;44965.34;5067693;28;20035;-73
2024/02/26 00:34:16;;;;;;;7.05;3.85;;;;;;;-146.27;83.06;44943.44;5079662;28;20028;-74
2024/02/26 00:36:42;;;;;;;5.45;3.72;;;;;;;-146.27;82.96;44935.47;5068196;28;20032;-73
2024/02/26 00:39:08;;;;;;;5.15;3.88;;;;;;;-146.27;83.13;44977.28;5063428;28;20036;-74
2024/02/26 00:41:37;;;;;;;8.93;4.40;;;;;;;-146.27;83.04;44971.31;5065310;28;20029;-74
2024/02/26 00:44:03;;;;;;;7.22;3.95;;;;;;;-146.27;83.42;44939.47;5063055;28;20131;-73
2024/02/26 00:46:28;;;;;;;7.05;3.95;;;;;;;-146.27;82.85;44951.41;5067087;28;20099;-72
2024/02/26 00:48:54;;;;;;;6.00;3.58;;;;;;;-146.27;83.15;44967.31;5067959;28;20113;-73
2024/02/26 00:51:20;;;;;;;4.93;3.47;;;;;;;-146.27;82.87;44949.41;5066912;28;20021;-73
2024/02/26 00:53:45;;;;;;;6.30;3.90;;;;;;;-146.27;82.88;44913.59;5067715;28;20393;-73
2024/02/26 00:56:10;;;;;;;6.07;4.10;;;;;;;-146.27;82.58;44955.38;5062743;28;20504;-74
2024/02/26 00:58:36;;;;;;;6.18;3.78;;;;;;;-146.27;82.74;44985.22;5069308;28;20495;-73
2024/02/26 01:01:02;;;;;;;6.30;3.95;;;;;;;-146.27;82.64;44981.25;5068004;28;20841;-73
2024/02/26 01:03:28;;;;;;;5.07;3.85;;;;;;;-146.27;82.82;44987.22;5067570;28;20029;-73
2024/02/26 01:05:54;;;;;;;5.47;4.07;;;;;;;-146.27;82.86;44971.31;5065526;28;20020;-72
2024/02/26 01:08:20;;;;;;;4.75;3.47;;;;;;;-146.27;82.46;44967.31;5068304;28;20107;-72
2024/02/26 01:10:45;;;;;;;7.18;3.80;;;;;;;-146.27;82.85;44983.25;5068251;28;20119;-73
2024/02/26 01:13:11;;;;;;;5.10;3.95;;;;;;;-146.27;83.13;44969.31;5069440;28;20503;-74
2024/02/26 01:15:36;;;;;;;6.00;3.97;;;;;;;-146.27;82.82;44973.28;5071223;28;20032;-74
2024/02/26 01:18:02;;;;;;;6.00;3.53;;;;;;;-146.27;83.09;44999.16;5070663;28;20036;-74
2024/02/26 01:20:27;;;;;;;6.25;3.60;;;;;;;-146.27;83.16;44999.16;5072516;28;20397;-74
2024/02/26 01:22:53;;;;;;;8.98;3.92;;;;;;;-146.27;83.28;44991.19;5069218;28;20050;-74
2024/02/26 01:25:18;;;;;;;4.57;3.90;;;;;;;-146.27;82.74;44981.25;5070426;28;20020;-73
2024/02/26 01:27:44;;;;;;;4.88;3.55;;;;;;;-146.27;82.60;44973.28;5070006;28;20049;-72
2024/02/26 01:30:10;;;;;;;6.10;3.80;;;;;;;-146.27;83.37;44975.28;5068774;28;20035;-73
2024/02/26 01:32:37;;;;;;;4.35;3.60;;;;;;;-146.27;82.85;44971.31;5080250;28;20040;-73
2024/02/26 01:35:09;;;;;;;5.10;3.45;;;;;;;-146.27;83.03;44977.28;5067550;28;20083;-73
2024/02/26 01:37:35;;;;;;;7.43;4.43;;;;;;;-146.27;82.87;44967.31;5063803;28;20031;-73
2024/02/26 01:40:03;;;;;;;7.80;3.92;;;;;;;-146.27;82.84;44955.38;5065925;28;20038;-74
2024/02/26 01:42:29;;;;;;;7.50;4.57;;;;;;;-146.27;82.51;44933.50;5068666;28;20024;-74
2024/02/26 01:44:55;;;;;;;6.68;4.20;;;;;;;-146.27;82.60;44977.28;5070204;28;20029;-73
2024/02/26 01:47:20;;;;;;;5.93;4.70;;;;;;;-146.27;82.60;44973.28;5070534;28;20025;-74
2024/02/26 01:49:45;;;;;;;11.95;4.30;;;;;;;-146.27;82.72;45007.13;5071425;28;20039;-73
2024/02/26 01:52:11;;;;;;;6.13;4.82;;;;;;;-146.27;82.63;44987.22;5070092;28;20024;-72
2024/02/26 01:54:38;;;;;;;5.53;4.38;;;;;;;-146.27;82.28;44959.38;5070345;28;20052;-73
2024/02/26 01:57:05;;;;;;;7.43;5.25;;;;;;;-146.27;82.78;44977.28;5070285;28;20072;-73
2024/02/26 01:59:31;;;;;;;6.00;5.13;;;;;;;-146.27;82.68;44957.38;5072738;28;20047;-72
2024/02/26 02:02:01;;;;;;;6.63;4.82;;;;;;;-146.27;82.96;44967.31;5064401;28;20473;-73
2024/02/26 02:04:27;;;;;;;7.15;5.32;;;;;;;-146.27;82.67;44947.41;5058381;28;20430;-73
2024/02/26 02:06:53;;;;;;;6.78;4.78;;;;;;;-146.27;82.47;44971.31;5071700;28;20111;-73
2024/02/26 02:09:19;;;;;;;9.18;5.00;;;;;;;-146.27;82.48;44967.31;5070452;28;20012;-73
2024/02/26 02:11:44;;;;;;;8.70;5.63;;;;;;;-146.27;82.27;44957.38;5069853;28;20082;-72
2024/02/26 02:14:10;;;;;;;7.95;5.40;;;;;;;-146.27;82.33;44999.16;5071535;28;20131;-73
2024/02/26 02:16:35;;;;;;;8.88;5.10;;;;;;;-146.27;82.38;44979.25;5070952;28;20155;-72
2024/02/26 02:19:01;;;;;;;13.55;5.22;;;;;;;-146.27;82.33;45011.09;5071562;28;20028;-73
2024/02/26 02:21:26;;;;;;;7.28;5.60;;;;;;;-146.27;82.25;45007.13;5068166;28;20024;-73
2024/02/26 02:23:51;;;;;;;9.55;5.55;;;;;;;-146.27;82.22;44979.25;5066170;28;20408;-73
2024/02/26 02:26:18;;;;;;;7.32;5.65;;;;;;;-146.27;82.41;44975.28;5069596;28;20047;-74
2024/02/26 02:28:45;;;;;;;8.43;4.97;;;;;;;-146.27;82.08;44987.22;5070326;28;20029;-73
2024/02/26 02:31:10;;;;;;;9.60;6.30;;;;;;;-146.27;81.81;44999.16;5069689;28;20035;-72
2024/02/26 02:33:37;;;;;;;8.75;5.53;;;;;;;-146.27;81.43;44955.38;5068557;28;20024;-72
2024/02/26 02:36:02;;;;;;;10.13;6.07;;;;;;;-146.27;81.51;44983.25;5071432;28;20922;-73
2024/02/26 02:38:29;;;;;;;7.20;5.60;;;;;;;-146.27;81.70;44975.28;5061420;28;20033;-73
2024/02/26 02:40:55;;;;;;;10.38;5.93;;;;;;;-146.27;81.78;45005.13;5066386;28;20074;-73
2024/02/26 02:43:20;;;;;;;7.70;5.60;;;;;;;-146.27;81.62;44979.25;5069894;28;20443;-73
2024/02/26 02:45:46;;;;;;;8.68;6.28;;;;;;;-146.27;81.33;44995.19;5068993;28;20119;-72
2024/02/26 02:48:11;;;;;;;10.80;5.60;;;;;;;-146.27;81.26;44999.16;5069768;28;20020;-74
2024/02/26 02:50:37;;;;;;;7.68;5.10;;;;;;;-146.27;81.26;45017.06;5068947;28;20047;-73
2024/02/26 02:53:03;;;;;;;9.70;5.95;;;;;;;-146.27;81.23;44997.16;5070382;28;20085;-73
2024/02/26 02:55:29;;;;;;;9.95;5.57;;;;;;;-146.27;81.03;45011.09;5067802;28;20039;-72
2024/02/26 02:57:54;;;;;;;8.82;5.63;;;;;;;-146.27;81.34;45019.06;5068318;28;20414;-73
2024/02/26 03:00:20;;;;;;;7.50;5.35;;;;;;;-146.27;80.92;45007.13;5068107;28;20032;-73
2024/02/26 03:02:46;;;;;;;9.65;5.45;;;;;;;-146.27;81.15;45038.97;5065506;28;20028;-72
2024/02/26 03:05:11;;;;;;;8.82;5.57;;;;;;;-146.27;81.35;45031.00;5069558;28;20375;-73
2024/02/26 03:07:37;;;;;;;9.95;5.60;;;;;;;-146.27;81.06;45015.09;5074293;28;20052;-72
2024/02/26 03:10:03;;;;;;;9.32;5.65;;;;;;;-146.27;81.08;45046.94;5065506;28;20029;-73
2024/02/26 03:12:28;;;;;;;8.77;6.05;;;;;;;-146.27;81.46;45054.88;5068827;28;20021;-73
2024/02/26 03:14:54;;;;;;;6.72;5.35;;;;;;;-146.27;81.60;45021.06;5073217;28;20048;-73
2024/02/26 03:17:20;;;;;;;6.45;4.53;;;;;;;-146.27;81.79;45054.88;5069346;28;20039;-73
2024/02/26 03:19:46;;;;;;;7.40;4.82;;;;;;;-146.27;81.35;45019.06;5068051;28;20020;-73
2024/02/26 03:22:15;;;;;;;7.22;5.20;;;;;;;-146.27;81.00;45015.09;5068707;28;20051;-73
2024/02/26 03:24:40;;;;;;;8.20;5.43;;;;;;;-146.27;81.43;45042.94;5071183;28;20047;-73
2024/02/26 03:27:09;;;;;;;7.55;5.25;;;;;;;-146.27;81.90;45046.94;5063985;28;20092;-72
2024/02/26 03:29:37;;;;;;;8.40;4.78;;;;;;;-146.27;81.40;45031.00;5065796;28;20016;-74
2024/02/26 03:32:03;;;;;;;8.38;5.55;;;;;;;-146.27;81.20;45027.03;5070083;28;20038;-73
2024/02/26 03:34:30;;;;;;;10.27;5.97;;;;;;;-146.27;81.50;45062.84;5068799;28;20031;-73
2024/02/26 03:36:56;;;;;;;10.95;6.22;;;;;;;-146.27;82.41;45078.75;5070129;28;20154;-74
2024/02/26 03:39:22;;;;;;;8.38;5.50;;;;;;;-146.27;81.91;45042.94;5069932;28;20035;-71
2024/02/26 03:41:48;;;;;;;11.80;5.90;;;;;;;-146.27;81.42;45019.06;5069483;28;20029;-73
2024/02/26 03:44:14;;;;;;;12.25;6.35;;;;;;;-146.27;82.06;45052.91;5061296;28;20041;-73
2024/02/26 03:46:39;;;;;;;9.52;6.03;;;;;;;-146.27;81.76;45060.84;5063863;28;20043;-73
2024/02/26 03:49:04;;;;;;;11.88;6.80;;;;;;;-146.27;81.81;45052.91;5069553;28;20027;-72
2024/02/26 03:51:31;;;;;;;10.02;7.20;;;;;;;-146.27;81.86;45042.94;5067185;28;20468;-73
2024/02/26 03:53:59;;;;;;;8.40;5.82;;;;;;;-146.27;81.51;45050.91;5069110;28;20508;-75
2024/02/26 03:56:26;;;;;;;9.43;6.38;;;;;;;-146.27;81.81;45052.91;5065456;28;20491;-73
2024/02/26 03:58:51;;;;;;;9.80;6.55;;;;;;;-146.27;82.08;45060.84;5065820;28;20020;-74
2024/02/26 04:01:17;;;;;;;9.60;6.68;;;;;;;-146.27;81.71;45048.91;5068257;28;20029;-72
2024/02/26 04:03:43;;;;;;;10.75;6.32;;;;;;;-146.27;81.74;45011.09;5067724;28;20036;-73
2024/02/26 04:06:10;;;;;;;12.73;8.20;;;;;;;-146.27;82.15;45038.97;5068088;28;20028;-73
2024/02/26 04:08:35;;;;;;;11.15;6.40;;;;;;;-146.27;82.76;45046.94;5067045;28;20023;-73
2024/02/26 04:11:01;;;;;;;11.13;7.15;;;;;;;-146.27;82.45;45025.03;5065878;28;20025;-74
2024/02/26 04:13:27;;;;;;;11.48;6.50;;;;;;;-146.27;82.30;45013.09;5068587;28;20028;-74
2024/02/26 04:15:53;;;;;;;11.85;7.30;;;;;;;-146.27;82.96;45042.94;5068998;28;20111;-73
2024/02/26 04:18:18;;;;;;;10.73;6.97;;;;;;;-146.27;82.53;45027.03;5066388;28;20606;-73
2024/02/26 04:20:43;;;;;;;11.48;8.05;;;;;;;-146.27;82.90;45060.84;5062723;28;20032;-74
2024/02/26 04:23:09;;;;;;;10.95;7.22;;;;;;;-146.27;83.23;45034.97;5063925;28;20098;-71
2024/02/26 04:25:34;;;;;;;13.88;7.35;;;;;;;-146.27;83.08;45036.97;5062283;28;20063;-73
2024/02/26 04:28:00;;;;;;;12.15;6.97;;;;;;;-146.27;82.81;45029.00;5063489;28;20416;-72
2024/02/26 04:30:25;;;;;;;11.65;7.60;;;;;;;-146.27;83.20;45048.91;5066443;28;20064;-72
2024/02/26 04:32:50;;;;;;;11.48;7.07;;;;;;;-146.27;83.17;45078.75;5068136;28;20025;-73
2024/02/26 04:35:16;;;;;;;12.88;7.68;;;;;;;-146.27;83.29;45031.00;5068193;28;20036;-71
2024/02/26 04:37:42;;;;;;;11.98;7.13;;;;;;;-146.27;83.71;45066.81;5067996;28;20098;-71
2024/02/26 04:40:07;;;;;;;11.20;7.38;;;;;;;-146.27;83.55;45025.03;5063421;28;20037;-73
2024/02/26 04:42:33;;;;;;;11.50;7.35;;;;;;;-146.27;83.80;45046.94;5060485;28;20112;-74
2024/02/26 04:44:58;;;;;;;17.92;7.80;;;;;;;-146.27;83.39;45019.06;5062062;28;22046;-73
2024/02/26 04:47:24;;;;;;;11.93;7.72;;;;;;;-146.27;83.23;45038.97;5064888;28;20050;-72
2024/02/26 04:49:50;;;;;;;12.57;7.30;;;;;;;-146.27;83.71;45017.06;5064712;28;20129;-73
2024/02/26 04:52:15;;;;;;;17.13;7.40;;;;;;;-146.27;83.62;45044.94;5068679;28;20032;-73
2024/02/26 04:54:41;;;;;;;13.63;7.15;;;;;;;-146.27;83.28;45050.91;5070028;28;20032;-73
2024/02/26 04:57:06;;;;;;;11.73;6.50;;;;;;;-146.27;83.36;45044.94;5104524;28;20028;-73
2024/02/26 04:59:32;;;;;;;10.60;6.50;;;;;;;-146.27;83.73;45062.84;5070932;28;20122;-74
2024/02/26 05:01:57;;;;;;;14.45;6.82;;;;;;;-146.27;83.39;45050.91;5069985;28;20472;-74
2024/02/26 05:04:22;;;;;;;10.38;6.80;;;;;;;-146.27;83.04;45034.97;5069898;28;20036;-74
2024/02/26 05:06:48;;;;;;;12.70;7.82;;;;;;;-146.27;83.34;45042.94;5073239;28;20060;-73
2024/02/26 05:09:13;;;;;;;13.68;7.28;;;;;;;-146.27;83.39;45023.03;5074931;28;20031;-73
2024/02/26 05:11:38;;;;;;;12.25;7.53;;;;;;;-146.27;83.47;45078.75;5065074;28;20029;-72
2024/02/26 05:14:04;;;;;;;10.98;6.93;;;;;;;-146.27;83.07;45034.97;5069840;28;20973;-73
2024/02/26 05:16:30;;;;;;;12.32;7.32;;;;;;;-146.27;83.30;45048.91;5064674;28;20032;-73
2024/02/26 05:18:56;;;;;;;12.10;7.13;;;;;;;-146.27;83.25;45050.91;5066954;28;20074;-73
2024/02/26 05:21:21;;;;;;;14.95;8.18;;;;;;;-146.27;83.04;45064.84;5067344;28;20036;-74
2024/02/26 05:23:47;;;;;;;13.63;7.72;;;;;;;-146.27;83.87;45090.72;5063893;28;20089;-72
2024/02/26 05:26:22;;;;;;;12.38;7.68;;;;;;;-146.27;83.28;45056.88;5070337;28;20554;-74
2024/02/26 05:28:48;;;;;;;17.63;7.70;;;;;;;-146.27;83.09;45042.94;5072615;28;20028;-73
2024/02/26 05:31:14;;;;;;;10.23;6.28;;;;;;;-146.27;83.06;45082.75;5072267;28;20031;-74
2024/02/26 05:33:39;;;;;;;11.93;7.40;;;;;;;-146.27;83.08;45033.00;5068340;28;20040;-73
2024/02/26 05:36:05;;;;;;;13.55;7.45;;;;;;;-146.27;83.38;45076.78;5068482;28;20111;-73
2024/02/26 05:38:31;;;;;;;12.90;7.70;;;;;;;-146.27;83.61;45102.66;5069040;28;20012;-73
2024/02/26 05:40:58;;;;;;;14.25;7.43;;;;;;;-146.27;83.53;45058.88;5074553;28;20480;-73
2024/02/26 05:43:24;;;;;;;12.15;7.28;;;;;;;-146.27;83.30;45074.78;5071557;28;20025;-73
2024/02/26 05:45:49;;;;;;;12.63;7.55;;;;;;;-146.27;83.92;45082.75;5070255;28;20081;-73
2024/02/26 05:48:14;;;;;;;12.63;7.45;;;;;;;-146.27;84.01;45078.75;5071992;28;20051;-74
2024/02/26 05:50:40;;;;;;;11.75;7.45;;;;;;;-146.27;83.90;45102.66;5072645;28;20044;-73
2024/02/26 05:53:05;;;;;;;10.38;6.35;;;;;;;-146.27;83.58;45054.88;5072283;28;20032;-73
2024/02/26 05:55:30;;;;;;;13.60;7.25;;;;;;;-146.27;83.42;45058.88;5069331;28;20449;-74
2024/02/26 05:57:56;;;;;;;15.57;7.95;;;;;;;-146.27;83.15;45078.75;5070153;28;20029;-74
2024/02/26 06:00:21;;;;;;;12.30;7.25;;;;;;;-146.27;83.26;45062.84;5067627;28;21548;-75
2024/02/26 06:02:46;;;;;;;13.20;7.38;;;;;;;-146.27;83.53;45076.78;5069040;28;20024;-74
2024/02/26 06:05:12;;;;;;;14.73;8.27;;;;;;;-146.27;83.59;45042.94;5067723;28;20078;-74
2024/02/26 06:07:37;;;;;;;12.18;6.82;;;;;;;-146.27;83.23;45046.94;5070087;28;20025;-73
2024/02/26 06:10:04;;;;;;;17.13;8.98;;;;;;;-146.27;83.09;45054.88;5060157;28;20384;-73
2024/02/26 06:12:30;;;;;;;19.55;8.73;;;;;;;-146.27;83.30;45050.91;5070431;28;20107;-74
2024/02/26 06:14:56;;;;;;;16.00;8.48;;;;;;;-146.27;82.91;45038.97;5070704;28;20107;-74
2024/02/26 06:17:22;;;;;;;16.70;8.88;;;;;;;-146.27;83.69;45048.91;5070489;28;20112;-73
2024/02/26 06:19:47;;;;;;;17.30;9.30;;;;;;;-146.27;84.04;45031.00;5071249;28;20082;-73
2024/02/26 06:22:12;;;;;;;15.45;9.07;;;;;;;-146.27;84.26;45033.00;5064798;28;20036;-73
2024/02/26 06:24:38;;;;;;;19.90;10.23;;;;;;;-146.27;83.85;45025.03;5071796;28;20051;-73
2024/02/26 06:27:03;;;;;;;18.05;9.93;;;;;;;-146.27;84.39;45038.97;5069427;28;20040;-74
2024/02/26 06:29:29;;;;;;;18.60;9.73;;;;;;;-146.27;84.56;45050.91;5064101;28;20102;-74
2024/02/26 06:31:55;;;;;;;17.42;9.90;;;;;;;-146.27;84.42;45042.94;5067374;28;20365;-74
2024/02/26 06:34:20;;;;;;;19.00;10.93;;;;;;;-146.27;84.94;45062.84;5064181;28;20023;-73
2024/02/26 06:36:46;;;;;;;23.10;11.80;;;;;;;-146.27;84.80;45023.03;5069733;28;20028;-72
2024/02/26 06:39:12;;;;;;;18.13;10.10;;;;;;;-146.27;85.01;45025.03;5070578;28;20081;-74
2024/02/26 06:41:39;;;;;;;18.77;10.50;;;;;;;-146.27;84.68;45050.91;5069416;28;20058;-74
2024/02/26 06:44:05;;;;;;;22.85;11.52;;;;;;;-146.27;84.39;44985.22;5072178;28;20020;-74
2024/02/26 06:46:31;;;;;;;18.95;10.98;;;;;;;-146.27;85.97;45038.97;5062018;28;20400;-75
2024/02/26 06:48:56;;;;;;;20.42;11.30;;;;;;;-146.27;85.59;45023.03;5067155;28;20027;-73
2024/02/26 06:51:22;;;;;;;21.55;12.05;;;;;;;-146.27;85.09;45007.13;5069301;28;20032;-73
2024/02/26 06:53:49;;;;;;;21.10;11.60;;;;;;;-146.27;85.38;45027.03;5070725;28;20032;-72
2024/02/26 06:56:14;;;;;;;21.10;11.98;;;;;;;-146.27;86.07;45013.09;5069332;28;20100;-74
2024/02/26 06:58:40;;;;;;;24.58;13.10;;;;;;;-146.27;85.46;45017.06;5068233;28;20078;-73
2024/02/26 07:01:05;;;;;;;19.50;11.55;;;;;;;-146.27;86.02;45007.13;5068944;28;20129;-73
2024/02/26 07:03:31;;;;;;;22.52;12.65;;;;;;;-146.27;85.57;44959.38;5068949;28;21247;-73
2024/02/26 07:05:56;;;;;;;24.90;12.80;;;;;;;-146.27;85.67;45007.13;5069695;28;20013;-72
2024/02/26 07:08:22;;;;;;;19.35;11.52;;;;;;;-146.27;85.53;44983.25;5068419;28;20024;-73
2024/02/26 07:10:47;;;;;;;22.23;12.43;;;;;;;-146.27;86.16;45003.16;5070454;28;20024;-73
2024/02/26 07:13:13;;;;;;;20.95;11.30;;;;;;;-146.27;86.13;44983.25;5067253;28;20105;-74
2024/02/26 07:15:41;;;;;;;21.48;13.30;;;;;;;-146.27;86.64;45017.06;5072780;28;20035;-73
2024/02/26 07:18:07;;;;;;;22.75;13.05;;;;;;;-146.27;86.18;45021.06;5073049;28;20020;-73
2024/02/26 07:20:32;;;;;;;22.65;12.55;;;;;;;-146.27;86.15;45015.09;5074713;28;20201;-74
2024/02/26 07:22:58;;;;;;;20.33;12.93;;;;;;;-146.27;85.68;45050.91;5067460;28;20605;-74
2024/02/26 07:25:24;;;;;;;22.63;12.90;;;;;;;-146.27;85.72;45019.06;5072936;28;20072;-73
2024/02/26 07:27:50;;;;;;;18.20;12.23;;;;;;;-146.27;86.38;45062.84;5062740;28;20033;-75
2024/02/26 07:30:16;;;;;;;17.88;11.63;;;;;;;-146.27;86.40;45078.75;5068856;28;20036;-73
2024/02/26 07:32:42;;;;;;;22.45;11.40;;;;;;;-146.27;85.95;45066.81;5066508;28;20855;-73
2024/02/26 07:35:08;;;;;;;22.13;12.45;;;;;;;-146.27;86.40;45106.63;5067565;28;20039;-74
2024/02/26 07:37:34;;;;;;;16.70;11.07;;;;;;;-146.27;86.18;45064.84;5069959;28;20099;-75
2024/02/26 07:40:00;;;;;;;18.83;10.32;;;;;;;-146.27;86.19;45116.56;5066591;28;20047;-75
2024/02/26 07:42:26;;;;;;;19.10;10.80;;;;;;;-146.27;86.18;45122.53;5068682;28;20029;-73
2024/02/26 07:44:52;;;;;;;16.05;9.77;;;;;;;-146.27;86.75;45134.50;5076781;28;20048;-72
2024/02/26 07:47:18;;;;;;;14.05;9.25;;;;;;;-146.27;86.40;45126.53;5069916;28;20075;-73
2024/02/26 07:49:44;;;;;;;14.90;9.32;;;;;;;-146.27;86.20;45164.34;5068125;28;20043;-74
2024/02/26 07:52:10;;;;;;;15.85;9.20;;;;;;;-146.27;86.58;45166.31;5069839;28;20033;-73
2024/02/26 07:54:35;;;;;;;15.38;9.40;;;;;;;-146.27;86.69;45192.19;5069787;28;20025;-73
2024/02/26 07:57:05;;;;;;;11.90;8.15;;;;;;;-146.27;86.01;45192.19;5071486;28;20023;-75
2024/02/26 07:59:31;;;;;;;14.77;8.43;;;;;;;-146.27;85.47;45162.34;5072681;28;20073;-75
2024/02/26 08:01:57;;;;;;;11.70;8.18;;;;;;;-146.27;86.25;45212.09;5073843;28;20032;-75
2024/02/26 08:04:22;;;;;;;12.93;7.70;;;;;;;-146.27;86.12;45192.19;5080510;28;20476;-75
2024/02/26 08:06:48;;;;;;;11.88;7.70;;;;;;;-146.27;85.72;45234.00;5081080;28;20035;-74
2024/02/26 08:09:14;;;;;;;12.80;7.70;;;;;;;-146.27;86.16;45257.88;5071116;28;20020;-74
2024/02/26 08:11:39;;;;;;;11.65;6.90;;;;;;;-146.27;86.14;45279.75;5082668;28;20024;-74
2024/02/26 08:14:05;;;;;;;15.68;7.93;;;;;;;-146.27;86.19;45253.91;5069751;28;20033;-75
2024/02/26 08:16:30;;;;;;;11.85;7.30;;;;;;;-146.27;86.13;45261.84;5068353;28;20033;-74
2024/02/26 08:18:56;;;;;;;14.95;7.13;;;;;;;-146.27;85.46;45271.81;5056137;28;20557;-74
2024/02/26 08:21:22;;;;;;;12.52;5.88;;;;;;;-146.27;85.68;45309.63;5086886;28;20028;-74
2024/02/26 08:23:47;;;;;;;8.68;6.05;;;;;;;-146.27;85.16;45265.84;5073797;28;20039;-74
2024/02/26 08:26:12;;;;;;;11.57;6.40;;;;;;;-146.27;85.38;45315.59;5082227;28;20037;-74
2024/02/26 08:28:38;;;;;;;10.10;6.10;;;;;;;-146.27;85.24;45265.84;5074028;28;20737;-74
2024/02/26 08:31:03;;;;;;;11.52;6.32;;;;;;;-146.27;85.20;45291.72;5073347;28;20035;-74
2024/02/26 08:33:29;;;;;;;11.77;5.13;;;;;;;-146.27;85.52;45307.63;5072606;28;20436;-73
2024/02/26 08:35:54;;;;;;;6.97;4.82;;;;;;;-146.27;85.60;45301.66;5072150;28;20052;-75
2024/02/26 08:38:19;;;;;;;10.32;5.32;;;;;;;-146.27;85.49;45297.69;5072832;28;20027;-73
2024/02/26 08:40:45;;;;;;;7.68;5.15;;;;;;;-146.27;85.35;45317.56;5072024;28;20523;-74
2024/02/26 08:43:10;;;;;;;7.55;5.10;;;;;;;-146.27;85.09;45303.66;5073242;28;20032;-75
2024/02/26 08:45:36;;;;;;;9.35;5.47;;;;;;;-146.27;85.43;45305.63;5072137;28;20142;-75
2024/02/26 08:48:01;;;;;;;7.20;5.40;;;;;;;-146.27;84.75;45317.56;5072673;28;20075;-74
2024/02/26 08:50:26;;;;;;;7.32;5.07;;;;;;;-146.27;84.78;45325.53;5071317;28;20753;-75
2024/02/26 08:52:53;;;;;;;8.10;5.30;;;;;;;-146.27;84.83;45317.56;5072653;28;20024;-75
2024/02/26 08:55:18;;;;;;;7.65;4.82;;;;;;;-146.27;84.93;45299.66;5072101;28;20107;-76
2024/02/26 08:57:44;;;;;;;7.85;5.35;;;;;;;-146.27;84.54;45329.53;5071501;28;20112;-75
2024/02/26 09:00:11;;;;;;;7.93;5.28;;;;;;;-146.27;85.43;45343.44;5069736;28;20028;-77
2024/02/26 09:02:38;;;;;;;10.80;5.18;;;;;;;-146.27;85.02;45349.41;5071980;28;20456;-75
2024/02/26 09:05:05;;;;;;;7.28;5.20;;;;;;;-146.27;84.38;45317.56;5073400;28;20031;-75
2024/02/26 09:07:31;;;;;;;8.00;4.80;;;;;;;-146.27;84.73;45329.53;5073910;28;20606;-75
2024/02/26 09:09:56;;;;;;;6.43;4.20;;;;;;;-146.27;84.61;45337.47;5070782;28;20046;-76
2024/02/26 09:12:22;;;;;;;10.10;4.95;;;;;;;-146.27;84.28;45313.59;5070015;28;20101;-76
2024/02/26 09:14:47;;;;;;;7.35;4.63;;;;;;;-146.27;83.93;45367.34;5071875;28;20020;-75
2024/02/26 09:17:13;;;;;;;6.22;4.25;;;;;;;-146.27;84.23;45341.47;5072956;28;20534;-75
2024/02/26 09:19:38;;;;;;;7.72;4.50;;;;;;;-146.27;84.14;45371.31;5068327;28;20043;-75
2024/02/26 09:22:04;;;;;;;6.30;4.13;;;;;;;-146.27;84.31;45357.38;5073049;28;20036;-75
2024/02/26 09:24:29;;;;;;;6.90;4.68;;;;;;;-146.27;83.99;45351.41;5076258;28;20012;-75
2024/02/26 09:26:56;;;;;;;8.18;4.97;;;;;;;-146.27;83.39;45331.50;5072147;28;20040;-75
2024/02/26 09:29:21;;;;;;;6.28;3.75;;;;;;;-146.27;83.31;45305.63;5073687;28;20030;-75
2024/02/26 09:31:47;;;;;;;7.43;4.20;;;;;;;-146.27;82.79;45317.56;5070525;28;20451;-75
2024/02/26 09:34:13;;;;;;;5.72;3.75;;;;;;;-146.27;83.89;45339.47;5073721;28;20089;-74
2024/02/26 09:36:39;;;;;;;6.22;3.83;;;;;;;-146.27;83.89;45313.59;5090955;28;20035;-74
2024/02/26 09:39:04;;;;;;;5.60;3.60;;;;;;;-146.27;83.40;45375.28;5076933;28;20082;-73
2024/02/26 09:41:30;;;;;;;8.57;4.15;;;;;;;-146.27;82.86;45311.59;5077783;28;20055;-74
2024/02/26 09:43:57;;;;;;;7.80;3.85;;;;;;;-146.27;82.75;45289.72;5072249;28;20024;-74
2024/02/26 09:46:25;;;;;;;8.85;4.30;;;;;;;-146.27;83.15;45317.56;5072921;28;20026;-74
2024/02/26 09:48:50;;;;;;;6.25;3.95;;;;;;;-146.27;83.31;45317.56;5076987;28;20468;-74
2024/02/26 09:51:17;;;;;;;6.68;4.28;;;;;;;-146.27;83.47;45309.63;5072303;28;20115;-74
2024/02/26 09:53:45;;;;;;;9.25;3.97;;;;;;;-146.27;84.12;45361.38;5071747;28;20051;-71
2024/02/26 09:56:14;;;;;;;6.57;4.30;;;;;;;-146.27;84.34;45293.69;5067854;28;20031;-74
2024/02/26 09:58:42;;;;;;;7.90;4.15;;;;;;;-146.27;83.98;45289.72;5071216;28;20043;-75
2024/02/26 10:01:17;;;;;;;6.18;4.18;;;;;;;-146.27;84.07;45295.69;5076258;28;20078;-74
2024/02/26 10:03:44;;;;;;;6.75;4.20;;;;;;;-146.27;84.38;45281.75;5076296;28;20473;-73
2024/02/26 10:06:11;;;;;;;7.35;4.07;;;;;;;-146.27;83.73;45285.75;5074815;28;20038;-78
2024/02/26 10:08:37;;;;;;;9.32;4.65;;;;;;;-146.27;84.57;45319.56;5072677;28;20035;-74
2024/02/26 10:11:13;;;;;;;5.38;3.53;;;;;;;-146.27;84.14;45285.75;5075072;28;20387;-75
2024/02/26 10:13:38;;;;;;;6.97;4.13;;;;;;;-146.27;83.49;45241.94;5081438;28;20496;-74
2024/02/26 10:16:04;;;;;;;7.15;4.90;;;;;;;-146.27;83.83;45277.78;5078321;28;20027;-74
2024/02/26 10:19:04;;;;;;;7.40;4.28;;;;;;;-146.27;83.61;45311.59;5075402;28;20029;-74
2024/02/26 10:21:30;;;;;;;7.05;3.90;;;;;;;-146.27;83.36;45265.84;5055803;28;20033;-74
2024/02/26 10:23:55;;;;;;;6.03;4.28;;;;;;;-146.27;83.29;45307.63;5069045;28;20369;-75
2024/02/26 10:26:21;;;;;;;8.00;3.83;;;;;;;-146.27;83.32;45321.56;5074251;28;20089;-74
2024/02/26 10:28:47;;;;;;;9.02;4.78;;;;;;;-146.27;83.21;45329.53;5076342;28;20032;-74
2024/02/26 10:31:14;;;;;;;9.13;4.93;;;;;;;-146.27;83.28;45295.69;5079314;28;20032;-74
2024/02/26 10:33:40;;;;;;;8.25;4.82;;;;;;;-146.27;82.63;45281.75;5070688;28;20033;-74
2024/02/26 10:36:10;;;;;;;6.18;4.45;;;;;;;-146.27;82.90;45305.63;5073713;28;20031;-74
2024/02/26 10:38:36;;;;;;;6.80;4.57;;;;;;;-146.27;82.99;45299.66;5078527;28;20369;-74
2024/02/26 10:41:03;;;;;;;6.70;4.60;;;;;;;-146.27;83.20;45271.81;5077527;28;20035;-75
2024/02/26 10:43:28;;;;;;;6.60;4.05;;;;;;;-146.27;82.47;45275.78;5079771;28;20024;-74
2024/02/26 10:45:56;;;;;;;6.60;4.10;;;;;;;-146.27;82.94;45303.66;5083462;28;20067;-74
2024/02/26 10:48:22;;;;;;;6.82;4.05;;;;;;;-146.27;82.22;45321.56;5084607;28;20111;-74
2024/02/26 10:50:48;;;;;;;7.82;3.85;;;;;;;-146.27;82.42;45311.59;5081555;28;20556;-74
2024/02/26 10:53:17;;;;;;;7.35;4.53;;;;;;;-146.27;82.57;45335.50;5074359;28;20031;-74
2024/02/26 10:55:48;;;;;;;6.80;4.07;;;;;;;-146.27;82.26;45303.66;5070133;28;20033;-74
2024/02/26 10:58:15;;;;;;;7.82;4.82;;;;;;;-146.27;83.44;45295.69;5077746;28;20063;-74
2024/02/26 11:00:41;;;;;;;6.63;4.00;;;;;;;-146.27;83.14;45289.72;5074605;28;20020;-74
2024/02/26 11:03:09;;;;;;;5.88;3.92;;;;;;;-146.27;83.68;45321.56;5083703;28;20082;-74
2024/02/26 11:05:36;;;;;;;6.95;4.55;;;;;;;-146.27;83.17;45303.66;5072458;28;20073;-74